Wallkill, New York
Current Conditions -  °F | °C
As of 9:45 AM on Tuesday 21 Oct 2014 (Local Time) from KSWF Reporting Station
Broken Clouds Broken Clouds  
Wind Chill: 10°   Ceiling: 6000
Heat Index: 10°   Visibility: 10mi
Dew Point: 10°   Wind: 5mph
Humidity: 100%   Direction: NA
Pressure: 29.93"   Gusts: NA
Location:  41.61°N, 74.16°W
Report Text: KSWF 211345Z VRB04KT 10SM FEW050 BKN060 10/10 A2993
Loading
Personal Weather Stations






























Interactive Weather Map
Tropical Storm Tracking
New forecast layout! Learn more

10-Day Weather Forecast

Advertisements
Track Severe Weather on mobile